sensor_id;sensor_type;location;lat;lon;timestamp;P1;durP1;ratioP1;P2;durP2;ratioP2
54408;SDS011;40315;48.620;9.828;2024-02-16T00:02:15;7.57;;;3.88;;
54408;SDS011;40315;48.620;9.828;2024-02-16T00:04:43;7.80;;;4.15;;
54408;SDS011;40315;48.620;9.828;2024-02-16T00:07:13;5.35;;;3.85;;
54408;SDS011;40315;48.620;9.828;2024-02-16T00:09:42;8.13;;;4.00;;
54408;SDS011;40315;48.620;9.828;2024-02-16T00:12:09;4.95;;;3.65;;
54408;SDS011;40315;48.620;9.828;2024-02-16T00:14:36;5.28;;;3.90;;
54408;SDS011;40315;48.620;9.828;2024-02-16T00:17:04;5.75;;;4.28;;
54408;SDS011;40315;48.620;9.828;2024-02-16T00:19:32;5.25;;;3.70;;
54408;SDS011;40315;48.620;9.828;2024-02-16T00:22:01;4.65;;;3.90;;
54408;SDS011;40315;48.620;9.828;2024-02-16T00:24:28;5.00;;;4.10;;
54408;SDS011;40315;48.620;9.828;2024-02-16T00:26:58;6.28;;;4.10;;
54408;SDS011;40315;48.620;9.828;2024-02-16T00:29:25;5.35;;;4.03;;
54408;SDS011;40315;48.620;9.828;2024-02-16T00:31:55;4.97;;;4.28;;
54408;SDS011;40315;48.620;9.828;2024-02-16T00:34:24;6.72;;;4.88;;
54408;SDS011;40315;48.620;9.828;2024-02-16T00:36:51;5.43;;;4.72;;
54408;SDS011;40315;48.620;9.828;2024-02-16T00:39:18;6.05;;;4.40;;
54408;SDS011;40315;48.620;9.828;2024-02-16T00:41:45;8.88;;;4.53;;
54408;SDS011;40315;48.620;9.828;2024-02-16T00:44:16;6.20;;;4.63;;
54408;SDS011;40315;48.620;9.828;2024-02-16T00:46:46;8.20;;;5.03;;
54408;SDS011;40315;48.620;9.828;2024-02-16T00:49:15;7.28;;;4.45;;
54408;SDS011;40315;48.620;9.828;2024-02-16T00:51:42;6.22;;;4.72;;
54408;SDS011;40315;48.620;9.828;2024-02-16T00:54:09;6.20;;;5.45;;
54408;SDS011;40315;48.620;9.828;2024-02-16T00:56:36;9.32;;;5.30;;
54408;SDS011;40315;48.620;9.828;2024-02-16T00:59:03;6.88;;;4.97;;
54408;SDS011;40315;48.620;9.828;2024-02-16T01:01:32;5.70;;;4.25;;
54408;SDS011;40315;48.620;9.828;2024-02-16T01:04:01;6.97;;;5.57;;
54408;SDS011;40315;48.620;9.828;2024-02-16T01:06:31;6.80;;;4.80;;
54408;SDS011;40315;48.620;9.828;2024-02-16T01:08:58;5.57;;;4.40;;
54408;SDS011;40315;48.620;9.828;2024-02-16T01:11:25;5.55;;;4.50;;
54408;SDS011;40315;48.620;9.828;2024-02-16T01:13:53;7.28;;;4.55;;
54408;SDS011;40315;48.620;9.828;2024-02-16T01:16:22;5.85;;;4.35;;
54408;SDS011;40315;48.620;9.828;2024-02-16T01:18:54;6.20;;;4.28;;
54408;SDS011;40315;48.620;9.828;2024-02-16T01:21:21;8.20;;;5.40;;
54408;SDS011;40315;48.620;9.828;2024-02-16T01:23:51;8.10;;;5.55;;
54408;SDS011;40315;48.620;9.828;2024-02-16T01:26:20;6.60;;;5.80;;
54408;SDS011;40315;48.620;9.828;2024-02-16T01:28:47;6.28;;;5.30;;
54408;SDS011;40315;48.620;9.828;2024-02-16T01:31:14;5.80;;;5.15;;
54408;SDS011;40315;48.620;9.828;2024-02-16T01:33:41;6.85;;;5.50;;
54408;SDS011;40315;48.620;9.828;2024-02-16T01:36:09;8.45;;;5.38;;
54408;SDS011;40315;48.620;9.828;2024-02-16T01:38:39;6.30;;;5.40;;
54408;SDS011;40315;48.620;9.828;2024-02-16T01:41:08;7.32;;;5.97;;
54408;SDS011;40315;48.620;9.828;2024-02-16T01:43:36;8.40;;;5.32;;
54408;SDS011;40315;48.620;9.828;2024-02-16T01:46:05;7.88;;;5.53;;
54408;SDS011;40315;48.620;9.828;2024-02-16T01:48:32;9.30;;;6.40;;
54408;SDS011;40315;48.620;9.828;2024-02-16T01:51:01;7.50;;;6.30;;
54408;SDS011;40315;48.620;9.828;2024-02-16T01:53:31;9.18;;;6.40;;
54408;SDS011;40315;48.620;9.828;2024-02-16T01:56:00;8.68;;;6.47;;
54408;SDS011;40315;48.620;9.828;2024-02-16T01:58:27;7.65;;;6.10;;
54408;SDS011;40315;48.620;9.828;2024-02-16T02:03:40;7.82;;;6.38;;
54408;SDS011;40315;48.620;9.828;2024-02-16T02:06:07;7.18;;;6.15;;
54408;SDS011;40315;48.620;9.828;2024-02-16T02:08:35;8.68;;;6.35;;
54408;SDS011;40315;48.620;9.828;2024-02-16T02:11:02;6.75;;;5.70;;
54408;SDS011;40315;48.620;9.828;2024-02-16T02:13:30;8.60;;;6.60;;
54408;SDS011;40315;48.620;9.828;2024-02-16T02:15:59;6.78;;;6.07;;
54408;SDS011;40315;48.620;9.828;2024-02-16T02:18:31;9.00;;;6.40;;
54408;SDS011;40315;48.620;9.828;2024-02-16T02:20:57;8.00;;;6.50;;
54408;SDS011;40315;48.620;9.828;2024-02-16T02:23:28;8.57;;;6.65;;
54408;SDS011;40315;48.620;9.828;2024-02-16T02:25:55;10.07;;;7.15;;
54408;SDS011;40315;48.620;9.828;2024-02-16T02:28:24;10.73;;;8.07;;
54408;SDS011;40315;48.620;9.828;2024-02-16T02:30:51;8.45;;;7.28;;
54408;SDS011;40315;48.620;9.828;2024-02-16T02:33:18;9.55;;;7.05;;
54408;SDS011;40315;48.620;9.828;2024-02-16T02:35:48;8.82;;;6.40;;
54408;SDS011;40315;48.620;9.828;2024-02-16T02:38:15;9.27;;;6.15;;
54408;SDS011;40315;48.620;9.828;2024-02-16T02:40:45;8.50;;;6.85;;
54408;SDS011;40315;48.620;9.828;2024-02-16T02:43:12;9.88;;;6.88;;
54408;SDS011;40315;48.620;9.828;2024-02-16T02:45:39;10.95;;;7.40;;
54408;SDS011;40315;48.620;9.828;2024-02-16T02:48:08;12.07;;;8.32;;
54408;SDS011;40315;48.620;9.828;2024-02-16T02:50:35;10.95;;;8.52;;
54408;SDS011;40315;48.620;9.828;2024-02-16T02:53:04;12.98;;;8.70;;
54408;SDS011;40315;48.620;9.828;2024-02-16T02:55:31;12.55;;;8.95;;
54408;SDS011;40315;48.620;9.828;2024-02-16T02:57:59;11.05;;;9.00;;
54408;SDS011;40315;48.620;9.828;2024-02-16T03:00:26;10.82;;;9.20;;
54408;SDS011;40315;48.620;9.828;2024-02-16T03:02:55;10.75;;;7.47;;
54408;SDS011;40315;48.620;9.828;2024-02-16T03:05:24;11.50;;;7.35;;
54408;SDS011;40315;48.620;9.828;2024-02-16T03:07:53;8.65;;;6.30;;
54408;SDS011;40315;48.620;9.828;2024-02-16T03:10:20;9.13;;;6.57;;
54408;SDS011;40315;48.620;9.828;2024-02-16T03:12:49;9.38;;;5.70;;
54408;SDS011;40315;48.620;9.828;2024-02-16T03:15:19;7.00;;;5.93;;
54408;SDS011;40315;48.620;9.828;2024-02-16T03:17:46;8.30;;;6.40;;
54408;SDS011;40315;48.620;9.828;2024-02-16T03:20:13;8.98;;;6.78;;
54408;SDS011;40315;48.620;9.828;2024-02-16T03:22:41;9.10;;;6.50;;
54408;SDS011;40315;48.620;9.828;2024-02-16T03:25:08;8.98;;;6.15;;
54408;SDS011;40315;48.620;9.828;2024-02-16T03:27:36;10.15;;;7.05;;
54408;SDS011;40315;48.620;9.828;2024-02-16T03:30:03;8.80;;;7.07;;
54408;SDS011;40315;48.620;9.828;2024-02-16T03:32:32;10.27;;;7.35;;
54408;SDS011;40315;48.620;9.828;2024-02-16T03:34:59;10.88;;;8.00;;
54408;SDS011;40315;48.620;9.828;2024-02-16T03:37:26;11.30;;;8.15;;
54408;SDS011;40315;48.620;9.828;2024-02-16T03:39:53;10.60;;;8.40;;
54408;SDS011;40315;48.620;9.828;2024-02-16T03:42:20;9.95;;;8.20;;
54408;SDS011;40315;48.620;9.828;2024-02-16T03:44:49;9.57;;;7.95;;
54408;SDS011;40315;48.620;9.828;2024-02-16T03:47:18;9.60;;;7.18;;
54408;SDS011;40315;48.620;9.828;2024-02-16T03:49:46;10.30;;;7.15;;
54408;SDS011;40315;48.620;9.828;2024-02-16T03:52:13;9.48;;;7.30;;
54408;SDS011;40315;48.620;9.828;2024-02-16T03:54:42;10.02;;;7.88;;
54408;SDS011;40315;48.620;9.828;2024-02-16T03:57:13;8.02;;;6.60;;
54408;SDS011;40315;48.620;9.828;2024-02-16T03:59:41;10.63;;;7.40;;
54408;SDS011;40315;48.620;9.828;2024-02-16T04:02:11;10.57;;;8.27;;
54408;SDS011;40315;48.620;9.828;2024-02-16T04:04:39;13.88;;;10.80;;
54408;SDS011;40315;48.620;9.828;2024-02-16T04:07:07;16.13;;;11.55;;
54408;SDS011;40315;48.620;9.828;2024-02-16T04:09:34;15.63;;;12.18;;
54408;SDS011;40315;48.620;9.828;2024-02-16T04:12:01;18.88;;;14.18;;
54408;SDS011;40315;48.620;9.828;2024-02-16T04:14:29;17.15;;;13.40;;
54408;SDS011;40315;48.620;9.828;2024-02-16T04:16:57;14.15;;;12.15;;
54408;SDS011;40315;48.620;9.828;2024-02-16T04:19:25;13.55;;;10.90;;
54408;SDS011;40315;48.620;9.828;2024-02-16T04:21:52;15.25;;;11.82;;
54408;SDS011;40315;48.620;9.828;2024-02-16T04:24:23;17.95;;;14.07;;
54408;SDS011;40315;48.620;9.828;2024-02-16T04:26:49;16.15;;;13.48;;
54408;SDS011;40315;48.620;9.828;2024-02-16T04:29:16;15.32;;;12.00;;
54408;SDS011;40315;48.620;9.828;2024-02-16T04:31:43;17.92;;;12.93;;
54408;SDS011;40315;48.620;9.828;2024-02-16T04:34:11;14.05;;;11.55;;
54408;SDS011;40315;48.620;9.828;2024-02-16T04:36:39;14.25;;;11.57;;
54408;SDS011;40315;48.620;9.828;2024-02-16T04:39:06;17.13;;;13.10;;
54408;SDS011;40315;48.620;9.828;2024-02-16T04:41:38;16.27;;;13.02;;
54408;SDS011;40315;48.620;9.828;2024-02-16T04:44:07;17.92;;;12.70;;
54408;SDS011;40315;48.620;9.828;2024-02-16T04:46:34;13.75;;;11.52;;
54408;SDS011;40315;48.620;9.828;2024-02-16T04:49:01;14.32;;;11.52;;
54408;SDS011;40315;48.620;9.828;2024-02-16T04:51:28;13.30;;;11.48;;
54408;SDS011;40315;48.620;9.828;2024-02-16T04:53:57;14.32;;;11.50;;
54408;SDS011;40315;48.620;9.828;2024-02-16T04:56:24;13.98;;;11.27;;
54408;SDS011;40315;48.620;9.828;2024-02-16T04:58:53;14.02;;;11.55;;
54408;SDS011;40315;48.620;9.828;2024-02-16T05:01:19;13.73;;;10.18;;
54408;SDS011;40315;48.620;9.828;2024-02-16T05:03:46;13.95;;;11.13;;
54408;SDS011;40315;48.620;9.828;2024-02-16T05:06:13;14.20;;;10.93;;
54408;SDS011;40315;48.620;9.828;2024-02-16T05:08:42;15.70;;;11.48;;
54408;SDS011;40315;48.620;9.828;2024-02-16T05:11:09;13.02;;;10.50;;
54408;SDS011;40315;48.620;9.828;2024-02-16T05:13:38;15.95;;;11.15;;
54408;SDS011;40315;48.620;9.828;2024-02-16T05:16:11;13.43;;;10.50;;
54408;SDS011;40315;48.620;9.828;2024-02-16T05:18:40;13.43;;;9.85;;
54408;SDS011;40315;48.620;9.828;2024-02-16T05:21:09;11.13;;;9.38;;
54408;SDS011;40315;48.620;9.828;2024-02-16T05:23:36;9.32;;;8.32;;
54408;SDS011;40315;48.620;9.828;2024-02-16T05:26:03;10.68;;;8.98;;
54408;SDS011;40315;48.620;9.828;2024-02-16T05:28:30;11.38;;;8.88;;
54408;SDS011;40315;48.620;9.828;2024-02-16T05:30:57;12.20;;;8.82;;
54408;SDS011;40315;48.620;9.828;2024-02-16T05:33:31;9.40;;;7.78;;
54408;SDS011;40315;48.620;9.828;2024-02-16T05:35:58;10.27;;;7.72;;
54408;SDS011;40315;48.620;9.828;2024-02-16T05:38:25;9.38;;;7.78;;
54408;SDS011;40315;48.620;9.828;2024-02-16T05:41:00;10.20;;;8.32;;
54408;SDS011;40315;48.620;9.828;2024-02-16T05:43:27;11.02;;;8.82;;
54408;SDS011;40315;48.620;9.828;2024-02-16T05:45:54;9.60;;;7.80;;
54408;SDS011;40315;48.620;9.828;2024-02-16T05:48:23;10.45;;;8.68;;
54408;SDS011;40315;48.620;9.828;2024-02-16T05:50:53;11.50;;;9.10;;
54408;SDS011;40315;48.620;9.828;2024-02-16T05:53:25;10.75;;;9.48;;
54408;SDS011;40315;48.620;9.828;2024-02-16T05:55:54;12.27;;;8.23;;
54408;SDS011;40315;48.620;9.828;2024-02-16T05:58:21;11.77;;;8.57;;
54408;SDS011;40315;48.620;9.828;2024-02-16T06:00:49;10.38;;;8.00;;
54408;SDS011;40315;48.620;9.828;2024-02-16T06:03:18;13.95;;;9.18;;
54408;SDS011;40315;48.620;9.828;2024-02-16T06:05:47;11.93;;;8.93;;
54408;SDS011;40315;48.620;9.828;2024-02-16T06:08:15;10.18;;;8.50;;
54408;SDS011;40315;48.620;9.828;2024-02-16T06:10:46;10.05;;;7.95;;
54408;SDS011;40315;48.620;9.828;2024-02-16T06:13:16;11.05;;;7.78;;
54408;SDS011;40315;48.620;9.828;2024-02-16T06:15:44;12.20;;;8.98;;
54408;SDS011;40315;48.620;9.828;2024-02-16T06:18:12;11.63;;;8.23;;
54408;SDS011;40315;48.620;9.828;2024-02-16T06:20:39;14.73;;;8.30;;
54408;SDS011;40315;48.620;9.828;2024-02-16T06:23:09;11.73;;;8.77;;
54408;SDS011;40315;48.620;9.828;2024-02-16T06:25:37;10.30;;;8.48;;
54408;SDS011;40315;48.620;9.828;2024-02-16T06:28:04;11.55;;;8.50;;
54408;SDS011;40315;48.620;9.828;2024-02-16T06:30:31;11.55;;;8.68;;
54408;SDS011;40315;48.620;9.828;2024-02-16T06:32:58;11.93;;;8.35;;
54408;SDS011;40315;48.620;9.828;2024-02-16T06:35:29;10.00;;;7.97;;
54408;SDS011;40315;48.620;9.828;2024-02-16T06:37:58;11.90;;;8.50;;
54408;SDS011;40315;48.620;9.828;2024-02-16T06:40:25;11.68;;;7.88;;
54408;SDS011;40315;48.620;9.828;2024-02-16T06:42:54;10.02;;;7.78;;
54408;SDS011;40315;48.620;9.828;2024-02-16T06:45:21;12.02;;;9.32;;
54408;SDS011;40315;48.620;9.828;2024-02-16T06:47:50;10.73;;;8.25;;
54408;SDS011;40315;48.620;9.828;2024-02-16T06:50:17;9.18;;;7.97;;
54408;SDS011;40315;48.620;9.828;2024-02-16T06:52:44;10.27;;;8.10;;
54408;SDS011;40315;48.620;9.828;2024-02-16T06:55:11;10.10;;;8.18;;
54408;SDS011;40315;48.620;9.828;2024-02-16T06:57:38;11.85;;;8.40;;
54408;SDS011;40315;48.620;9.828;2024-02-16T07:00:07;13.07;;;8.45;;
54408;SDS011;40315;48.620;9.828;2024-02-16T07:02:35;10.32;;;8.27;;
54408;SDS011;40315;48.620;9.828;2024-02-16T07:05:02;11.55;;;7.93;;
54408;SDS011;40315;48.620;9.828;2024-02-16T07:07:29;8.95;;;7.10;;
54408;SDS011;40315;48.620;9.828;2024-02-16T07:09:59;9.85;;;8.15;;
54408;SDS011;40315;48.620;9.828;2024-02-16T07:12:29;11.32;;;7.57;;
54408;SDS011;40315;48.620;9.828;2024-02-16T07:14:55;11.02;;;8.00;;
54408;SDS011;40315;48.620;9.828;2024-02-16T07:17:24;14.10;;;8.18;;
54408;SDS011;40315;48.620;9.828;2024-02-16T07:19:51;9.60;;;8.13;;
54408;SDS011;40315;48.620;9.828;2024-02-16T07:22:20;11.15;;;8.13;;
54408;SDS011;40315;48.620;9.828;2024-02-16T07:24:46;10.57;;;8.13;;
54408;SDS011;40315;48.620;9.828;2024-02-16T07:27:14;10.48;;;7.75;;
54408;SDS011;40315;48.620;9.828;2024-02-16T07:29:42;9.30;;;7.63;;
54408;SDS011;40315;48.620;9.828;2024-02-16T07:32:09;11.98;;;7.85;;
54408;SDS011;40315;48.620;9.828;2024-02-16T07:34:41;11.30;;;7.70;;
54408;SDS011;40315;48.620;9.828;2024-02-16T07:37:12;8.70;;;7.18;;
54408;SDS011;40315;48.620;9.828;2024-02-16T07:39:41;8.57;;;7.30;;
54408;SDS011;40315;48.620;9.828;2024-02-16T07:42:08;7.70;;;6.50;;
54408;SDS011;40315;48.620;9.828;2024-02-16T07:44:35;8.60;;;6.90;;
54408;SDS011;40315;48.620;9.828;2024-02-16T07:47:02;9.18;;;6.95;;
54408;SDS011;40315;48.620;9.828;2024-02-16T07:49:29;8.65;;;6.90;;
54408;SDS011;40315;48.620;9.828;2024-02-16T07:51:57;15.05;;;7.45;;
54408;SDS011;40315;48.620;9.828;2024-02-16T07:54:24;8.80;;;7.15;;
54408;SDS011;40315;48.620;9.828;2024-02-16T07:56:51;8.32;;;7.25;;
54408;SDS011;40315;48.620;9.828;2024-02-16T07:59:20;13.20;;;7.75;;
54408;SDS011;40315;48.620;9.828;2024-02-16T08:01:49;9.15;;;6.18;;
54408;SDS011;40315;48.620;9.828;2024-02-16T08:04:16;11.70;;;8.00;;
54408;SDS011;40315;48.620;9.828;2024-02-16T08:06:43;8.48;;;6.72;;
54408;SDS011;40315;48.620;9.828;2024-02-16T08:09:14;11.13;;;6.93;;
54408;SDS011;40315;48.620;9.828;2024-02-16T08:11:41;9.18;;;6.07;;
54408;SDS011;40315;48.620;9.828;2024-02-16T08:14:09;10.23;;;6.38;;
54408;SDS011;40315;48.620;9.828;2024-02-16T08:16:36;9.40;;;6.55;;
54408;SDS011;40315;48.620;9.828;2024-02-16T08:19:05;10.93;;;5.90;;
54408;SDS011;40315;48.620;9.828;2024-02-16T08:21:32;8.68;;;5.82;;
54408;SDS011;40315;48.620;9.828;2024-02-16T08:24:01;8.10;;;5.60;;
54408;SDS011;40315;48.620;9.828;2024-02-16T08:26:29;7.47;;;5.45;;
54408;SDS011;40315;48.620;9.828;2024-02-16T08:28:57;9.23;;;6.05;;
54408;SDS011;40315;48.620;9.828;2024-02-16T08:31:24;7.93;;;5.00;;
54408;SDS011;40315;48.620;9.828;2024-02-16T08:33:52;9.40;;;5.50;;
54408;SDS011;40315;48.620;9.828;2024-02-16T08:36:18;5.88;;;4.50;;
54408;SDS011;40315;48.620;9.828;2024-02-16T08:38:53;6.32;;;4.43;;
54408;SDS011;40315;48.620;9.828;2024-02-16T08:41:20;5.25;;;4.57;;
54408;SDS011;40315;48.620;9.828;2024-02-16T08:43:51;5.82;;;4.40;;
54408;SDS011;40315;48.620;9.828;2024-02-16T08:46:18;6.10;;;4.25;;
54408;SDS011;40315;48.620;9.828;2024-02-16T08:48:45;9.18;;;4.68;;
54408;SDS011;40315;48.620;9.828;2024-02-16T08:51:14;6.45;;;4.78;;
54408;SDS011;40315;48.620;9.828;2024-02-16T08:53:41;6.40;;;5.43;;
54408;SDS011;40315;48.620;9.828;2024-02-16T08:56:11;9.02;;;5.70;;
54408;SDS011;40315;48.620;9.828;2024-02-16T08:58:38;11.30;;;8.73;;
54408;SDS011;40315;48.620;9.828;2024-02-16T09:01:06;9.55;;;7.40;;
54408;SDS011;40315;48.620;9.828;2024-02-16T09:03:33;10.70;;;7.05;;
54408;SDS011;40315;48.620;9.828;2024-02-16T09:06:03;9.73;;;6.03;;
54408;SDS011;40315;48.620;9.828;2024-02-16T09:08:32;7.63;;;5.57;;
54408;SDS011;40315;48.620;9.828;2024-02-16T09:11:00;6.50;;;4.97;;
54408;SDS011;40315;48.620;9.828;2024-02-16T09:13:30;6.40;;;5.15;;
54408;SDS011;40315;48.620;9.828;2024-02-16T09:16:01;6.88;;;5.30;;
54408;SDS011;40315;48.620;9.828;2024-02-16T09:18:30;5.38;;;4.32;;
54408;SDS011;40315;48.620;9.828;2024-02-16T09:20:57;5.72;;;4.88;;
54408;SDS011;40315;48.620;9.828;2024-02-16T09:23:27;6.55;;;5.20;;
54408;SDS011;40315;48.620;9.828;2024-02-16T09:25:54;10.38;;;5.03;;
54408;SDS011;40315;48.620;9.828;2024-02-16T09:28:21;8.05;;;5.43;;
54408;SDS011;40315;48.620;9.828;2024-02-16T09:30:50;6.05;;;5.45;;
54408;SDS011;40315;48.620;9.828;2024-02-16T09:33:19;5.40;;;4.18;;
54408;SDS011;40315;48.620;9.828;2024-02-16T09:35:48;7.50;;;4.43;;
54408;SDS011;40315;48.620;9.828;2024-02-16T09:38:15;7.95;;;4.70;;
54408;SDS011;40315;48.620;9.828;2024-02-16T09:40:43;3.75;;;3.13;;
54408;SDS011;40315;48.620;9.828;2024-02-16T09:43:20;5.75;;;4.90;;
54408;SDS011;40315;48.620;9.828;2024-02-16T09:45:51;7.28;;;3.60;;
54408;SDS011;40315;48.620;9.828;2024-02-16T09:48:19;5.70;;;4.57;;
54408;SDS011;40315;48.620;9.828;2024-02-16T09:50:49;5.65;;;4.30;;
54408;SDS011;40315;48.620;9.828;2024-02-16T09:53:17;5.78;;;4.03;;
54408;SDS011;40315;48.620;9.828;2024-02-16T09:55:48;5.15;;;3.55;;
54408;SDS011;40315;48.620;9.828;2024-02-16T09:58:18;6.03;;;4.28;;
54408;SDS011;40315;48.620;9.828;2024-02-16T10:00:50;9.38;;;4.60;;
54408;SDS011;40315;48.620;9.828;2024-02-16T10:03:24;7.30;;;5.97;;
54408;SDS011;40315;48.620;9.828;2024-02-16T10:06:04;10.68;;;5.15;;
54408;SDS011;40315;48.620;9.828;2024-02-16T10:08:32;9.40;;;4.82;;
54408;SDS011;40315;48.620;9.828;2024-02-16T10:11:00;6.88;;;4.03;;
54408;SDS011;40315;48.620;9.828;2024-02-16T10:13:29;5.80;;;3.83;;
54408;SDS011;40315;48.620;9.828;2024-02-16T10:16:06;4.60;;;4.10;;
54408;SDS011;40315;48.620;9.828;2024-02-16T10:18:34;5.45;;;4.00;;
54408;SDS011;40315;48.620;9.828;2024-02-16T10:21:02;5.80;;;3.80;;
54408;SDS011;40315;48.620;9.828;2024-02-16T10:23:30;5.20;;;3.60;;
54408;SDS011;40315;48.620;9.828;2024-02-16T10:25:58;8.32;;;3.80;;
54408;SDS011;40315;48.620;9.828;2024-02-16T10:28:27;5.88;;;3.60;;
54408;SDS011;40315;48.620;9.828;2024-02-16T10:30:57;5.97;;;3.47;;
54408;SDS011;40315;48.620;9.828;2024-02-16T10:33:26;4.72;;;3.35;;
54408;SDS011;40315;48.620;9.828;2024-02-16T10:35:55;5.78;;;3.65;;
54408;SDS011;40315;48.620;9.828;2024-02-16T10:38:24;2.95;;;2.60;;
54408;SDS011;40315;48.620;9.828;2024-02-16T10:40:54;3.85;;;2.70;;
54408;SDS011;40315;48.620;9.828;2024-02-16T10:43:25;2.97;;;2.42;;
54408;SDS011;40315;48.620;9.828;2024-02-16T10:45:53;2.75;;;2.05;;
54408;SDS011;40315;48.620;9.828;2024-02-16T10:48:22;3.15;;;2.45;;
54408;SDS011;40315;48.620;9.828;2024-02-16T10:50:49;4.25;;;2.38;;
54408;SDS011;40315;48.620;9.828;2024-02-16T10:53:19;2.78;;;2.30;;
54408;SDS011;40315;48.620;9.828;2024-02-16T10:55:50;2.72;;;1.90;;
54408;SDS011;40315;48.620;9.828;2024-02-16T10:58:19;3.53;;;2.50;;
54408;SDS011;40315;48.620;9.828;2024-02-16T11:00:50;2.85;;;2.00;;
54408;SDS011;40315;48.620;9.828;2024-02-16T11:03:20;3.28;;;1.35;;
54408;SDS011;40315;48.620;9.828;2024-02-16T11:05:49;2.75;;;1.50;;
54408;SDS011;40315;48.620;9.828;2024-02-16T11:08:19;1.98;;;1.27;;
54408;SDS011;40315;48.620;9.828;2024-02-16T11:10:57;2.00;;;1.05;;
54408;SDS011;40315;48.620;9.828;2024-02-16T11:13:27;2.00;;;1.45;;
54408;SDS011;40315;48.620;9.828;2024-02-16T11:15:58;1.63;;;1.20;;
54408;SDS011;40315;48.620;9.828;2024-02-16T11:18:26;3.75;;;1.40;;
54408;SDS011;40315;48.620;9.828;2024-02-16T11:20:54;2.10;;;1.20;;
54408;SDS011;40315;48.620;9.828;2024-02-16T11:23:26;2.90;;;1.40;;
54408;SDS011;40315;48.620;9.828;2024-02-16T11:25:54;2.88;;;1.40;;
54408;SDS011;40315;48.620;9.828;2024-02-16T11:28:28;3.60;;;1.50;;
54408;SDS011;40315;48.620;9.828;2024-02-16T11:30:58;2.67;;;1.70;;
54408;SDS011;40315;48.620;9.828;2024-02-16T11:33:25;2.53;;;1.70;;
54408;SDS011;40315;48.620;9.828;2024-02-16T11:35:56;2.78;;;1.42;;
54408;SDS011;40315;48.620;9.828;2024-02-16T11:38:30;3.53;;;2.03;;
54408;SDS011;40315;48.620;9.828;2024-02-16T11:40:58;3.85;;;2.80;;
54408;SDS011;40315;48.620;9.828;2024-02-16T11:43:27;3.72;;;2.08;;
54408;SDS011;40315;48.620;9.828;2024-02-16T11:45:55;4.38;;;2.20;;
54408;SDS011;40315;48.620;9.828;2024-02-16T11:48:23;4.97;;;1.80;;
54408;SDS011;40315;48.620;9.828;2024-02-16T11:50:58;4.00;;;2.00;;
54408;SDS011;40315;48.620;9.828;2024-02-16T11:53:27;2.83;;;1.80;;
54408;SDS011;40315;48.620;9.828;2024-02-16T11:55:54;3.25;;;1.85;;
54408;SDS011;40315;48.620;9.828;2024-02-16T11:58:21;4.90;;;1.98;;
54408;SDS011;40315;48.620;9.828;2024-02-16T12:00:50;3.63;;;1.85;;
54408;SDS011;40315;48.620;9.828;2024-02-16T12:03:18;2.80;;;1.77;;
54408;SDS011;40315;48.620;9.828;2024-02-16T12:05:50;2.00;;;1.48;;
54408;SDS011;40315;48.620;9.828;2024-02-16T12:08:23;2.38;;;1.38;;
54408;SDS011;40315;48.620;9.828;2024-02-16T12:10:58;3.72;;;1.42;;
54408;SDS011;40315;48.620;9.828;2024-02-16T12:13:25;2.45;;;1.45;;
54408;SDS011;40315;48.620;9.828;2024-02-16T12:15:54;2.05;;;1.45;;
54408;SDS011;40315;48.620;9.828;2024-02-16T12:18:24;1.70;;;1.08;;
54408;SDS011;40315;48.620;9.828;2024-02-16T12:20:58;2.45;;;1.42;;
54408;SDS011;40315;48.620;9.828;2024-02-16T12:23:26;2.45;;;1.27;;
54408;SDS011;40315;48.620;9.828;2024-02-16T12:25:56;2.75;;;1.55;;
54408;SDS011;40315;48.620;9.828;2024-02-16T12:28:24;3.90;;;1.52;;
54408;SDS011;40315;48.620;9.828;2024-02-16T12:30:54;2.95;;;1.55;;
54408;SDS011;40315;48.620;9.828;2024-02-16T12:33:23;3.08;;;1.45;;
54408;SDS011;40315;48.620;9.828;2024-02-16T12:35:51;4.38;;;2.33;;
54408;SDS011;40315;48.620;9.828;2024-02-16T12:38:21;1.63;;;1.38;;
54408;SDS011;40315;48.620;9.828;2024-02-16T12:40:48;2.65;;;1.60;;
54408;SDS011;40315;48.620;9.828;2024-02-16T12:43:15;2.17;;;1.60;;
54408;SDS011;40315;48.620;9.828;2024-02-16T12:45:45;1.75;;;1.33;;
54408;SDS011;40315;48.620;9.828;2024-02-16T12:48:13;2.95;;;1.80;;
54408;SDS011;40315;48.620;9.828;2024-02-16T12:50:40;3.03;;;1.60;;
54408;SDS011;40315;48.620;9.828;2024-02-16T12:53:08;2.15;;;1.30;;
54408;SDS011;40315;48.620;9.828;2024-02-16T12:55:44;1.98;;;1.20;;
54408;SDS011;40315;48.620;9.828;2024-02-16T12:58:12;2.63;;;1.48;;
54408;SDS011;40315;48.620;9.828;2024-02-16T13:00:40;3.70;;;1.60;;
54408;SDS011;40315;48.620;9.828;2024-02-16T13:03:07;2.13;;;1.30;;
54408;SDS011;40315;48.620;9.828;2024-02-16T13:05:38;3.60;;;1.50;;
54408;SDS011;40315;48.620;9.828;2024-02-16T13:08:05;5.53;;;1.52;;
54408;SDS011;40315;48.620;9.828;2024-02-16T13:10:33;3.58;;;1.50;;
54408;SDS011;40315;48.620;9.828;2024-02-16T13:13:00;2.45;;;1.38;;
54408;SDS011;40315;48.620;9.828;2024-02-16T13:15:27;5.53;;;1.50;;
54408;SDS011;40315;48.620;9.828;2024-02-16T13:17:54;2.45;;;1.65;;
54408;SDS011;40315;48.620;9.828;2024-02-16T13:20:24;3.17;;;1.77;;
54408;SDS011;40315;48.620;9.828;2024-02-16T13:22:53;4.25;;;1.60;;
54408;SDS011;40315;48.620;9.828;2024-02-16T13:25:20;3.08;;;1.70;;
54408;SDS011;40315;48.620;9.828;2024-02-16T13:27:47;3.30;;;1.50;;
54408;SDS011;40315;48.620;9.828;2024-02-16T13:30:14;3.03;;;1.70;;
54408;SDS011;40315;48.620;9.828;2024-02-16T13:32:42;3.67;;;1.60;;
54408;SDS011;40315;48.620;9.828;2024-02-16T13:35:09;2.97;;;1.50;;
54408;SDS011;40315;48.620;9.828;2024-02-16T13:37:38;2.10;;;1.48;;
54408;SDS011;40315;48.620;9.828;2024-02-16T13:40:08;2.50;;;1.60;;
54408;SDS011;40315;48.620;9.828;2024-02-16T13:42:39;3.55;;;1.85;;
54408;SDS011;40315;48.620;9.828;2024-02-16T13:45:07;3.05;;;1.50;;
54408;SDS011;40315;48.620;9.828;2024-02-16T13:47:35;2.60;;;1.67;;
54408;SDS011;40315;48.620;9.828;2024-02-16T13:50:03;2.70;;;1.40;;
54408;SDS011;40315;48.620;9.828;2024-02-16T13:52:32;3.05;;;1.55;;
54408;SDS011;40315;48.620;9.828;2024-02-16T13:55:00;3.72;;;1.88;;
54408;SDS011;40315;48.620;9.828;2024-02-16T13:57:28;3.20;;;1.80;;
54408;SDS011;40315;48.620;9.828;2024-02-16T13:59:58;3.28;;;1.85;;
54408;SDS011;40315;48.620;9.828;2024-02-16T14:02:25;3.53;;;1.90;;
54408;SDS011;40315;48.620;9.828;2024-02-16T14:04:52;3.35;;;2.10;;
54408;SDS011;40315;48.620;9.828;2024-02-16T14:07:21;2.40;;;1.60;;
54408;SDS011;40315;48.620;9.828;2024-02-16T14:09:51;2.30;;;1.63;;
54408;SDS011;40315;48.620;9.828;2024-02-16T14:12:18;3.55;;;2.13;;
54408;SDS011;40315;48.620;9.828;2024-02-16T14:14:49;5.95;;;3.30;;
54408;SDS011;40315;48.620;9.828;2024-02-16T14:17:16;9.05;;;4.80;;
54408;SDS011;40315;48.620;9.828;2024-02-16T14:19:43;3.50;;;1.98;;
54408;SDS011;40315;48.620;9.828;2024-02-16T14:22:10;5.22;;;2.13;;
54408;SDS011;40315;48.620;9.828;2024-02-16T14:24:37;7.55;;;4.60;;
54408;SDS011;40315;48.620;9.828;2024-02-16T14:27:04;3.70;;;1.80;;
54408;SDS011;40315;48.620;9.828;2024-02-16T14:29:33;3.38;;;1.85;;
54408;SDS011;40315;48.620;9.828;2024-02-16T14:32:05;2.97;;;1.95;;
54408;SDS011;40315;48.620;9.828;2024-02-16T14:34:32;3.38;;;1.90;;
54408;SDS011;40315;48.620;9.828;2024-02-16T14:36:59;2.10;;;1.50;;
54408;SDS011;40315;48.620;9.828;2024-02-16T14:39:27;6.28;;;1.90;;
54408;SDS011;40315;48.620;9.828;2024-02-16T14:41:54;3.10;;;1.70;;
54408;SDS011;40315;48.620;9.828;2024-02-16T14:44:21;4.35;;;1.65;;
54408;SDS011;40315;48.620;9.828;2024-02-16T14:46:48;3.83;;;1.73;;
54408;SDS011;40315;48.620;9.828;2024-02-16T14:49:17;4.35;;;1.60;;
54408;SDS011;40315;48.620;9.828;2024-02-16T14:51:46;3.42;;;1.42;;
54408;SDS011;40315;48.620;9.828;2024-02-16T14:54:14;5.07;;;1.73;;